sensor_id;sensor_type;location;lat;lon;timestamp;P1;durP1;ratioP1;P2;durP2;ratioP2
4353;SDS011;11018;51.258;6.806;2022-09-09T00:01:54;4.40;;;1.50;;
4353;SDS011;11018;51.258;6.806;2022-09-09T00:04:41;3.20;;;1.58;;
4353;SDS011;11018;51.258;6.806;2022-09-09T00:07:13;4.05;;;1.50;;
4353;SDS011;11018;51.258;6.806;2022-09-09T00:10:17;4.43;;;1.52;;
4353;SDS011;11018;51.258;6.806;2022-09-09T00:15:25;3.90;;;1.45;;
4353;SDS011;11018;51.258;6.806;2022-09-09T00:20:44;3.25;;;1.70;;
4353;SDS011;11018;51.258;6.806;2022-09-09T00:28:19;2.90;;;1.50;;
4353;SDS011;11018;51.258;6.806;2022-09-09T00:30:49;2.53;;;1.70;;
4353;SDS011;11018;51.258;6.806;2022-09-09T00:33:16;5.18;;;1.50;;
4353;SDS011;11018;51.258;6.806;2022-09-09T00:35:49;3.95;;;1.52;;
4353;SDS011;11018;51.258;6.806;2022-09-09T00:38:19;3.40;;;1.80;;
4353;SDS011;11018;51.258;6.806;2022-09-09T00:40:51;4.10;;;1.38;;
4353;SDS011;11018;51.258;6.806;2022-09-09T00:43:25;2.60;;;1.70;;
4353;SDS011;11018;51.258;6.806;2022-09-09T00:48:52;3.30;;;1.70;;
4353;SDS011;11018;51.258;6.806;2022-09-09T00:51:30;1.58;;;1.42;;
4353;SDS011;11018;51.258;6.806;2022-09-09T01:02:53;2.40;;;1.65;;
4353;SDS011;11018;51.258;6.806;2022-09-09T01:05:46;3.95;;;1.50;;
4353;SDS011;11018;51.258;6.806;2022-09-09T01:08:39;3.58;;;1.80;;
4353;SDS011;11018;51.258;6.806;2022-09-09T01:11:26;4.47;;;1.67;;
4353;SDS011;11018;51.258;6.806;2022-09-09T01:14:11;2.70;;;1.60;;
4353;SDS011;11018;51.258;6.806;2022-09-09T01:16:44;3.20;;;1.80;;
4353;SDS011;11018;51.258;6.806;2022-09-09T01:19:14;3.90;;;1.80;;
4353;SDS011;11018;51.258;6.806;2022-09-09T01:22:03;2.97;;;1.40;;
4353;SDS011;11018;51.258;6.806;2022-09-09T01:27:34;4.13;;;1.90;;
4353;SDS011;11018;51.258;6.806;2022-09-09T01:30:04;4.60;;;2.20;;
4353;SDS011;11018;51.258;6.806;2022-09-09T01:32:37;4.43;;;2.00;;
4353;SDS011;11018;51.258;6.806;2022-09-09T01:35:09;3.40;;;2.30;;
4353;SDS011;11018;51.258;6.806;2022-09-09T01:37:40;4.13;;;2.40;;
4353;SDS011;11018;51.258;6.806;2022-09-09T01:40:06;5.07;;;2.40;;
4353;SDS011;11018;51.258;6.806;2022-09-09T01:42:32;5.82;;;2.60;;
4353;SDS011;11018;51.258;6.806;2022-09-09T01:44:58;5.22;;;2.78;;
4353;SDS011;11018;51.258;6.806;2022-09-09T01:47:23;5.28;;;2.40;;
4353;SDS011;11018;51.258;6.806;2022-09-09T01:49:49;4.85;;;2.60;;
4353;SDS011;11018;51.258;6.806;2022-09-09T01:52:15;6.70;;;2.55;;
4353;SDS011;11018;51.258;6.806;2022-09-09T01:54:40;3.80;;;2.60;;
4353;SDS011;11018;51.258;6.806;2022-09-09T01:57:10;5.97;;;3.00;;
4353;SDS011;11018;51.258;6.806;2022-09-09T01:59:52;6.35;;;2.63;;
4353;SDS011;11018;51.258;6.806;2022-09-09T02:02:33;6.60;;;3.00;;
4353;SDS011;11018;51.258;6.806;2022-09-09T02:07:43;5.53;;;2.60;;
4353;SDS011;11018;51.258;6.806;2022-09-09T02:10:23;4.63;;;2.60;;
4353;SDS011;11018;51.258;6.806;2022-09-09T02:12:55;5.10;;;2.40;;
4353;SDS011;11018;51.258;6.806;2022-09-09T02:15:34;7.82;;;2.40;;
4353;SDS011;11018;51.258;6.806;2022-09-09T02:18:08;4.00;;;2.10;;
4353;SDS011;11018;51.258;6.806;2022-09-09T02:20:36;6.80;;;2.60;;
4353;SDS011;11018;51.258;6.806;2022-09-09T02:23:04;7.03;;;2.33;;
4353;SDS011;11018;51.258;6.806;2022-09-09T02:25:32;5.70;;;2.00;;
4353;SDS011;11018;51.258;6.806;2022-09-09T02:28:00;7.03;;;2.40;;
4353;SDS011;11018;51.258;6.806;2022-09-09T02:30:28;4.55;;;1.90;;
4353;SDS011;11018;51.258;6.806;2022-09-09T02:32:57;4.32;;;2.13;;
4353;SDS011;11018;51.258;6.806;2022-09-09T02:35:24;4.10;;;2.10;;
4353;SDS011;11018;51.258;6.806;2022-09-09T02:37:52;5.63;;;2.60;;
4353;SDS011;11018;51.258;6.806;2022-09-09T02:40:21;6.80;;;2.53;;
4353;SDS011;11018;51.258;6.806;2022-09-09T02:42:47;4.63;;;2.70;;
4353;SDS011;11018;51.258;6.806;2022-09-09T02:45:15;6.00;;;2.67;;
4353;SDS011;11018;51.258;6.806;2022-09-09T02:50:29;8.68;;;2.75;;
4353;SDS011;11018;51.258;6.806;2022-09-09T02:53:13;5.88;;;2.70;;
4353;SDS011;11018;51.258;6.806;2022-09-09T02:58:11;5.95;;;2.20;;
4353;SDS011;11018;51.258;6.806;2022-09-09T03:00:42;7.53;;;2.15;;
4353;SDS011;11018;51.258;6.806;2022-09-09T03:03:10;5.30;;;2.08;;
4353;SDS011;11018;51.258;6.806;2022-09-09T03:05:36;10.38;;;3.13;;
4353;SDS011;11018;51.258;6.806;2022-09-09T03:08:02;7.45;;;4.85;;
4353;SDS011;11018;51.258;6.806;2022-09-09T03:10:28;8.75;;;3.63;;
4353;SDS011;11018;51.258;6.806;2022-09-09T03:12:53;9.77;;;4.40;;
4353;SDS011;11018;51.258;6.806;2022-09-09T03:15:20;6.13;;;3.00;;
4353;SDS011;11018;51.258;6.806;2022-09-09T03:17:46;6.70;;;3.20;;
4353;SDS011;11018;51.258;6.806;2022-09-09T03:20:12;6.97;;;3.55;;
4353;SDS011;11018;51.258;6.806;2022-09-09T03:22:37;8.82;;;3.90;;
4353;SDS011;11018;51.258;6.806;2022-09-09T03:25:03;8.23;;;3.85;;
4353;SDS011;11018;51.258;6.806;2022-09-09T03:27:29;11.48;;;6.05;;
4353;SDS011;11018;51.258;6.806;2022-09-09T03:29:55;16.30;;;6.32;;
4353;SDS011;11018;51.258;6.806;2022-09-09T03:32:20;6.10;;;3.70;;
4353;SDS011;11018;51.258;6.806;2022-09-09T03:34:47;8.85;;;4.25;;
4353;SDS011;11018;51.258;6.806;2022-09-09T03:37:15;6.65;;;4.05;;
4353;SDS011;11018;51.258;6.806;2022-09-09T03:39:42;12.82;;;6.13;;
4353;SDS011;11018;51.258;6.806;2022-09-09T03:42:08;8.77;;;2.60;;
4353;SDS011;11018;51.258;6.806;2022-09-09T03:44:34;9.10;;;3.22;;
4353;SDS011;11018;51.258;6.806;2022-09-09T03:46:59;8.40;;;3.67;;
4353;SDS011;11018;51.258;6.806;2022-09-09T03:51:53;7.10;;;4.80;;
4353;SDS011;11018;51.258;6.806;2022-09-09T03:54:19;8.13;;;4.35;;
4353;SDS011;11018;51.258;6.806;2022-09-09T03:56:45;12.45;;;7.18;;
4353;SDS011;11018;51.258;6.806;2022-09-09T03:59:10;10.37;;;5.80;;
4353;SDS011;11018;51.258;6.806;2022-09-09T04:01:36;8.47;;;3.20;;
4353;SDS011;11018;51.258;6.806;2022-09-09T04:04:01;8.48;;;2.95;;
4353;SDS011;11018;51.258;6.806;2022-09-09T04:06:27;14.25;;;5.93;;
4353;SDS011;11018;51.258;6.806;2022-09-09T04:08:53;11.85;;;5.57;;
4353;SDS011;11018;51.258;6.806;2022-09-09T04:11:20;9.63;;;4.28;;
4353;SDS011;11018;51.258;6.806;2022-09-09T04:13:46;8.68;;;4.20;;
4353;SDS011;11018;51.258;6.806;2022-09-09T04:16:12;7.53;;;2.50;;
4353;SDS011;11018;51.258;6.806;2022-09-09T04:18:41;8.77;;;3.25;;
4353;SDS011;11018;51.258;6.806;2022-09-09T04:21:07;7.47;;;3.50;;
4353;SDS011;11018;51.258;6.806;2022-09-09T04:23:35;8.13;;;4.97;;
4353;SDS011;11018;51.258;6.806;2022-09-09T04:26:01;11.38;;;6.20;;
4353;SDS011;11018;51.258;6.806;2022-09-09T04:28:28;18.02;;;8.35;;
4353;SDS011;11018;51.258;6.806;2022-09-09T04:30:55;13.85;;;7.13;;
4353;SDS011;11018;51.258;6.806;2022-09-09T04:33:23;9.75;;;4.43;;
4353;SDS011;11018;51.258;6.806;2022-09-09T04:35:51;12.40;;;6.00;;
4353;SDS011;11018;51.258;6.806;2022-09-09T04:38:18;15.10;;;6.57;;
4353;SDS011;11018;51.258;6.806;2022-09-09T04:40:47;20.13;;;9.00;;
4353;SDS011;11018;51.258;6.806;2022-09-09T04:43:14;18.58;;;8.65;;
4353;SDS011;11018;51.258;6.806;2022-09-09T04:45:40;18.45;;;9.18;;
4353;SDS011;11018;51.258;6.806;2022-09-09T04:48:06;24.65;;;13.27;;
4353;SDS011;11018;51.258;6.806;2022-09-09T04:50:32;23.60;;;15.68;;
4353;SDS011;11018;51.258;6.806;2022-09-09T04:53:02;17.55;;;7.82;;
4353;SDS011;11018;51.258;6.806;2022-09-09T04:55:29;13.48;;;3.47;;
4353;SDS011;11018;51.258;6.806;2022-09-09T04:57:55;13.07;;;6.47;;
4353;SDS011;11018;51.258;6.806;2022-09-09T05:00:22;15.95;;;8.35;;
4353;SDS011;11018;51.258;6.806;2022-09-09T05:02:48;7.15;;;3.63;;
4353;SDS011;11018;51.258;6.806;2022-09-09T05:05:14;14.47;;;6.47;;
4353;SDS011;11018;51.258;6.806;2022-09-09T05:07:39;13.87;;;6.30;;
4353;SDS011;11018;51.258;6.806;2022-09-09T05:10:06;14.50;;;7.45;;
4353;SDS011;11018;51.258;6.806;2022-09-09T05:12:32;15.45;;;7.15;;
4353;SDS011;11018;51.258;6.806;2022-09-09T05:14:58;12.10;;;6.30;;
4353;SDS011;11018;51.258;6.806;2022-09-09T05:17:23;14.63;;;7.07;;
4353;SDS011;11018;51.258;6.806;2022-09-09T05:19:49;63.55;;;43.90;;
4353;SDS011;11018;51.258;6.806;2022-09-09T05:22:18;14.73;;;7.53;;
4353;SDS011;11018;51.258;6.806;2022-09-09T05:24:45;21.42;;;14.13;;
4353;SDS011;11018;51.258;6.806;2022-09-09T05:27:11;48.38;;;35.85;;
4353;SDS011;11018;51.258;6.806;2022-09-09T05:29:37;33.40;;;23.13;;
4353;SDS011;11018;51.258;6.806;2022-09-09T05:32:03;44.45;;;28.55;;
4353;SDS011;11018;51.258;6.806;2022-09-09T05:34:29;55.67;;;37.10;;
4353;SDS011;11018;51.258;6.806;2022-09-09T05:36:54;25.83;;;16.63;;
4353;SDS011;11018;51.258;6.806;2022-09-09T05:39:20;14.63;;;8.40;;
4353;SDS011;11018;51.258;6.806;2022-09-09T05:41:46;31.07;;;22.67;;
4353;SDS011;11018;51.258;6.806;2022-09-09T05:44:11;28.80;;;19.53;;
4353;SDS011;11018;51.258;6.806;2022-09-09T05:46:37;11.88;;;4.65;;
4353;SDS011;11018;51.258;6.806;2022-09-09T05:49:03;27.83;;;19.35;;
4353;SDS011;11018;51.258;6.806;2022-09-09T05:51:30;28.77;;;14.00;;
4353;SDS011;11018;51.258;6.806;2022-09-09T05:53:56;35.00;;;20.93;;
4353;SDS011;11018;51.258;6.806;2022-09-09T05:56:26;19.38;;;8.65;;
4353;SDS011;11018;51.258;6.806;2022-09-09T05:58:53;20.53;;;8.60;;
4353;SDS011;11018;51.258;6.806;2022-09-09T06:01:30;17.45;;;4.75;;
4353;SDS011;11018;51.258;6.806;2022-09-09T06:03:57;8.98;;;3.75;;
4353;SDS011;11018;51.258;6.806;2022-09-09T06:06:24;8.65;;;3.00;;
4353;SDS011;11018;51.258;6.806;2022-09-09T06:08:52;14.73;;;3.80;;
4353;SDS011;11018;51.258;6.806;2022-09-09T06:13:46;7.88;;;2.90;;
4353;SDS011;11018;51.258;6.806;2022-09-09T06:16:13;11.07;;;3.03;;
4353;SDS011;11018;51.258;6.806;2022-09-09T06:18:41;8.02;;;3.70;;
4353;SDS011;11018;51.258;6.806;2022-09-09T06:21:09;8.82;;;3.00;;
4353;SDS011;11018;51.258;6.806;2022-09-09T06:23:39;7.03;;;3.40;;
4353;SDS011;11018;51.258;6.806;2022-09-09T06:26:15;10.20;;;3.60;;
4353;SDS011;11018;51.258;6.806;2022-09-09T06:28:46;14.38;;;5.45;;
4353;SDS011;11018;51.258;6.806;2022-09-09T06:31:13;11.00;;;3.43;;
4353;SDS011;11018;51.258;6.806;2022-09-09T06:33:42;8.50;;;3.17;;
4353;SDS011;11018;51.258;6.806;2022-09-09T06:36:12;10.63;;;3.05;;
4353;SDS011;11018;51.258;6.806;2022-09-09T06:38:40;10.38;;;3.30;;
4353;SDS011;11018;51.258;6.806;2022-09-09T06:41:07;9.07;;;3.00;;
4353;SDS011;11018;51.258;6.806;2022-09-09T06:43:33;9.60;;;2.72;;
4353;SDS011;11018;51.258;6.806;2022-09-09T06:46:04;9.18;;;3.10;;
4353;SDS011;11018;51.258;6.806;2022-09-09T06:48:33;11.50;;;3.17;;
4353;SDS011;11018;51.258;6.806;2022-09-09T06:53:32;13.77;;;3.78;;
4353;SDS011;11018;51.258;6.806;2022-09-09T06:56:03;9.73;;;2.30;;
4353;SDS011;11018;51.258;6.806;2022-09-09T06:58:44;10.25;;;4.70;;
4353;SDS011;11018;51.258;6.806;2022-09-09T07:01:11;9.20;;;3.00;;
4353;SDS011;11018;51.258;6.806;2022-09-09T07:03:38;10.18;;;2.80;;
4353;SDS011;11018;51.258;6.806;2022-09-09T07:06:05;10.10;;;2.63;;
4353;SDS011;11018;51.258;6.806;2022-09-09T07:08:32;5.40;;;2.40;;
4353;SDS011;11018;51.258;6.806;2022-09-09T07:11:02;11.63;;;2.83;;
4353;SDS011;11018;51.258;6.806;2022-09-09T07:13:31;10.93;;;3.30;;
4353;SDS011;11018;51.258;6.806;2022-09-09T07:16:07;9.40;;;2.97;;
4353;SDS011;11018;51.258;6.806;2022-09-09T07:18:34;8.18;;;2.97;;
4353;SDS011;11018;51.258;6.806;2022-09-09T07:21:00;9.30;;;2.67;;
4353;SDS011;11018;51.258;6.806;2022-09-09T07:23:28;7.82;;;2.80;;
4353;SDS011;11018;51.258;6.806;2022-09-09T07:25:54;7.68;;;2.60;;
4353;SDS011;11018;51.258;6.806;2022-09-09T07:28:19;12.90;;;2.90;;
4353;SDS011;11018;51.258;6.806;2022-09-09T07:30:55;10.43;;;3.00;;
4353;SDS011;11018;51.258;6.806;2022-09-09T07:33:22;8.30;;;2.60;;
4353;SDS011;11018;51.258;6.806;2022-09-09T07:35:49;12.43;;;3.75;;
4353;SDS011;11018;51.258;6.806;2022-09-09T07:38:15;11.90;;;2.97;;
4353;SDS011;11018;51.258;6.806;2022-09-09T07:40:40;6.97;;;2.40;;
4353;SDS011;11018;51.258;6.806;2022-09-09T07:43:06;13.80;;;2.63;;
4353;SDS011;11018;51.258;6.806;2022-09-09T07:45:33;8.48;;;2.90;;
4353;SDS011;11018;51.258;6.806;2022-09-09T07:47:59;6.57;;;2.50;;
4353;SDS011;11018;51.258;6.806;2022-09-09T07:50:25;10.88;;;2.80;;
4353;SDS011;11018;51.258;6.806;2022-09-09T07:52:51;5.28;;;2.20;;
4353;SDS011;11018;51.258;6.806;2022-09-09T07:55:18;7.70;;;2.88;;
4353;SDS011;11018;51.258;6.806;2022-09-09T07:57:44;9.10;;;2.20;;
4353;SDS011;11018;51.258;6.806;2022-09-09T08:00:10;9.90;;;2.65;;
4353;SDS011;11018;51.258;6.806;2022-09-09T08:02:36;7.00;;;2.15;;
4353;SDS011;11018;51.258;6.806;2022-09-09T08:05:02;9.80;;;2.50;;
4353;SDS011;11018;51.258;6.806;2022-09-09T08:07:28;9.73;;;2.88;;
4353;SDS011;11018;51.258;6.806;2022-09-09T08:09:54;9.50;;;2.30;;
4353;SDS011;11018;51.258;6.806;2022-09-09T08:12:20;7.95;;;2.00;;
4353;SDS011;11018;51.258;6.806;2022-09-09T08:14:46;7.47;;;2.58;;
4353;SDS011;11018;51.258;6.806;2022-09-09T08:17:13;11.75;;;2.60;;
4353;SDS011;11018;51.258;6.806;2022-09-09T08:19:39;8.55;;;2.30;;
4353;SDS011;11018;51.258;6.806;2022-09-09T08:22:05;12.40;;;2.60;;
4353;SDS011;11018;51.258;6.806;2022-09-09T08:24:32;6.32;;;2.30;;
4353;SDS011;11018;51.258;6.806;2022-09-09T08:26:58;9.55;;;2.45;;
4353;SDS011;11018;51.258;6.806;2022-09-09T08:29:24;8.20;;;3.20;;
4353;SDS011;11018;51.258;6.806;2022-09-09T08:31:51;11.38;;;2.92;;
4353;SDS011;11018;51.258;6.806;2022-09-09T08:34:19;12.38;;;3.70;;
4353;SDS011;11018;51.258;6.806;2022-09-09T08:36:46;11.13;;;2.30;;
4353;SDS011;11018;51.258;6.806;2022-09-09T08:39:13;6.50;;;3.08;;
4353;SDS011;11018;51.258;6.806;2022-09-09T08:50:28;12.20;;;2.72;;
4353;SDS011;11018;51.258;6.806;2022-09-09T08:55:50;8.07;;;3.25;;
4353;SDS011;11018;51.258;6.806;2022-09-09T08:58:27;11.65;;;2.80;;
4353;SDS011;11018;51.258;6.806;2022-09-09T09:04:00;10.25;;;3.47;;
4353;SDS011;11018;51.258;6.806;2022-09-09T09:12:00;7.70;;;2.38;;
4353;SDS011;11018;51.258;6.806;2022-09-09T09:14:30;9.30;;;2.05;;
4353;SDS011;11018;51.258;6.806;2022-09-09T09:17:15;7.40;;;2.60;;
4353;SDS011;11018;51.258;6.806;2022-09-09T09:19:44;6.03;;;2.20;;
4353;SDS011;11018;51.258;6.806;2022-09-09T09:22:19;5.60;;;1.80;;
4353;SDS011;11018;51.258;6.806;2022-09-09T09:30:36;7.72;;;3.28;;
4353;SDS011;11018;51.258;6.806;2022-09-09T09:36:02;11.65;;;3.30;;
4353;SDS011;11018;51.258;6.806;2022-09-09T09:38:28;8.30;;;2.90;;
4353;SDS011;11018;51.258;6.806;2022-09-09T09:40:55;8.77;;;2.50;;
4353;SDS011;11018;51.258;6.806;2022-09-09T09:43:32;11.05;;;2.80;;
4353;SDS011;11018;51.258;6.806;2022-09-09T09:46:00;7.55;;;2.60;;
4353;SDS011;11018;51.258;6.806;2022-09-09T09:48:28;5.55;;;2.30;;
4353;SDS011;11018;51.258;6.806;2022-09-09T09:50:54;9.35;;;2.30;;
4353;SDS011;11018;51.258;6.806;2022-09-09T09:53:28;7.03;;;2.03;;
4353;SDS011;11018;51.258;6.806;2022-09-09T09:56:00;5.03;;;1.70;;
4353;SDS011;11018;51.258;6.806;2022-09-09T09:58:29;7.55;;;2.00;;
4353;SDS011;11018;51.258;6.806;2022-09-09T10:00:59;4.88;;;2.47;;
4353;SDS011;11018;51.258;6.806;2022-09-09T10:03:26;6.30;;;2.20;;
4353;SDS011;11018;51.258;6.806;2022-09-09T10:05:57;7.90;;;2.10;;
4353;SDS011;11018;51.258;6.806;2022-09-09T10:08:23;7.07;;;2.45;;
4353;SDS011;11018;51.258;6.806;2022-09-09T10:16:27;6.90;;;2.83;;
4353;SDS011;11018;51.258;6.806;2022-09-09T10:20:04;4.30;;;2.00;;
4353;SDS011;11018;51.258;6.806;2022-09-09T10:22:01;8.98;;;2.78;;
4353;SDS011;11018;51.258;6.806;2022-09-09T10:27:19;6.97;;;2.28;;
4353;SDS011;11018;51.258;6.806;2022-09-09T10:41:16;7.25;;;2.70;;
4353;SDS011;11018;51.258;6.806;2022-09-09T10:43:52;4.10;;;1.73;;
4353;SDS011;11018;51.258;6.806;2022-09-09T10:46:48;7.40;;;2.30;;
4353;SDS011;11018;51.258;6.806;2022-09-09T10:55:08;5.32;;;2.20;;
4353;SDS011;11018;51.258;6.806;2022-09-09T10:57:56;5.40;;;2.60;;
4353;SDS011;11018;51.258;6.806;2022-09-09T11:00:37;7.17;;;2.80;;
4353;SDS011;11018;51.258;6.806;2022-09-09T11:03:09;5.97;;;2.70;;
4353;SDS011;11018;51.258;6.806;2022-09-09T11:06:10;8.82;;;3.35;;
4353;SDS011;11018;51.258;6.806;2022-09-09T11:08:39;4.78;;;2.10;;
4353;SDS011;11018;51.258;6.806;2022-09-09T11:11:17;8.05;;;2.85;;
4353;SDS011;11018;51.258;6.806;2022-09-09T11:14:21;4.90;;;2.50;;
4353;SDS011;11018;51.258;6.806;2022-09-09T11:17:01;6.32;;;2.05;;
4353;SDS011;11018;51.258;6.806;2022-09-09T11:21:59;7.18;;;3.30;;
4353;SDS011;11018;51.258;6.806;2022-09-09T11:24:45;14.18;;;8.00;;
4353;SDS011;11018;51.258;6.806;2022-09-09T11:35:37;11.20;;;3.28;;
4353;SDS011;11018;51.258;6.806;2022-09-09T11:40:44;5.50;;;2.85;;
4353;SDS011;11018;51.258;6.806;2022-09-09T11:43:12;4.05;;;2.35;;
4353;SDS011;11018;51.258;6.806;2022-09-09T11:45:40;6.57;;;2.45;;
4353;SDS011;11018;51.258;6.806;2022-09-09T11:48:28;14.20;;;4.28;;
4353;SDS011;11018;51.258;6.806;2022-09-09T11:53:30;9.13;;;4.70;;
4353;SDS011;11018;51.258;6.806;2022-09-09T11:56:01;8.45;;;4.22;;
4353;SDS011;11018;51.258;6.806;2022-09-09T11:58:31;9.23;;;4.75;;
4353;SDS011;11018;51.258;6.806;2022-09-09T12:01:12;10.15;;;5.50;;
4353;SDS011;11018;51.258;6.806;2022-09-09T12:08:46;12.30;;;4.47;;
4353;SDS011;11018;51.258;6.806;2022-09-09T12:11:26;10.52;;;4.50;;
4353;SDS011;11018;51.258;6.806;2022-09-09T12:13:54;6.28;;;2.50;;
4353;SDS011;11018;51.258;6.806;2022-09-09T12:16:28;6.90;;;2.10;;
4353;SDS011;11018;51.258;6.806;2022-09-09T12:19:24;6.55;;;3.20;;
4353;SDS011;11018;51.258;6.806;2022-09-09T12:24:48;7.47;;;3.45;;
4353;SDS011;11018;51.258;6.806;2022-09-09T12:27:35;6.97;;;2.20;;
4353;SDS011;11018;51.258;6.806;2022-09-09T12:30:09;14.90;;;3.60;;
4353;SDS011;11018;51.258;6.806;2022-09-09T12:32:37;6.15;;;2.10;;
4353;SDS011;11018;51.258;6.806;2022-09-09T12:35:25;4.57;;;2.00;;
4353;SDS011;11018;51.258;6.806;2022-09-09T12:37:54;8.77;;;2.30;;
4353;SDS011;11018;51.258;6.806;2022-09-09T12:40:24;5.75;;;2.60;;
4353;SDS011;11018;51.258;6.806;2022-09-09T12:43:00;4.17;;;1.90;;
4353;SDS011;11018;51.258;6.806;2022-09-09T12:45:28;6.53;;;2.13;;
4353;SDS011;11018;51.258;6.806;2022-09-09T12:47:58;6.40;;;2.45;;
4353;SDS011;11018;51.258;6.806;2022-09-09T12:50:31;7.75;;;2.80;;
4353;SDS011;11018;51.258;6.806;2022-09-09T12:53:01;4.97;;;1.35;;
4353;SDS011;11018;51.258;6.806;2022-09-09T12:55:57;8.02;;;3.00;;
4353;SDS011;11018;51.258;6.806;2022-09-09T12:58:25;3.07;;;1.60;;
4353;SDS011;11018;51.258;6.806;2022-09-09T13:00:53;6.60;;;2.27;;
4353;SDS011;11018;51.258;6.806;2022-09-09T13:03:21;6.45;;;2.65;;
4353;SDS011;11018;51.258;6.806;2022-09-09T13:05:48;5.10;;;1.90;;
4353;SDS011;11018;51.258;6.806;2022-09-09T13:08:15;7.15;;;2.33;;
4353;SDS011;11018;51.258;6.806;2022-09-09T13:10:56;9.85;;;2.00;;
4353;SDS011;11018;51.258;6.806;2022-09-09T13:13:28;6.65;;;3.00;;
4353;SDS011;11018;51.258;6.806;2022-09-09T13:16:03;8.07;;;2.95;;
4353;SDS011;11018;51.258;6.806;2022-09-09T13:18:35;4.60;;;2.10;;
4353;SDS011;11018;51.258;6.806;2022-09-09T13:21:05;4.97;;;1.90;;
4353;SDS011;11018;51.258;6.806;2022-09-09T13:23:31;5.80;;;2.00;;
4353;SDS011;11018;51.258;6.806;2022-09-09T13:26:04;9.18;;;2.50;;
4353;SDS011;11018;51.258;6.806;2022-09-09T13:28:32;5.65;;;2.72;;
4353;SDS011;11018;51.258;6.806;2022-09-09T13:33:31;8.15;;;1.80;;
4353;SDS011;11018;51.258;6.806;2022-09-09T13:36:04;7.70;;;3.00;;
4353;SDS011;11018;51.258;6.806;2022-09-09T13:38:36;8.73;;;2.47;;
4353;SDS011;11018;51.258;6.806;2022-09-09T13:41:06;8.20;;;3.07;;
4353;SDS011;11018;51.258;6.806;2022-09-09T13:43:51;5.40;;;1.90;;
4353;SDS011;11018;51.258;6.806;2022-09-09T13:54:00;6.25;;;2.60;;
4353;SDS011;11018;51.258;6.806;2022-09-09T13:56:26;14.65;;;5.38;;
4353;SDS011;11018;51.258;6.806;2022-09-09T13:58:52;6.03;;;2.80;;
4353;SDS011;11018;51.258;6.806;2022-09-09T14:01:20;4.75;;;2.92;;
4353;SDS011;11018;51.258;6.806;2022-09-09T14:03:45;5.83;;;2.50;;
4353;SDS011;11018;51.258;6.806;2022-09-09T14:06:11;8.20;;;2.55;;
4353;SDS011;11018;51.258;6.806;2022-09-09T14:08:36;4.20;;;2.20;;
4353;SDS011;11018;51.258;6.806;2022-09-09T14:11:03;4.30;;;1.60;;
4353;SDS011;11018;51.258;6.806;2022-09-09T14:13:29;5.25;;;2.10;;
4353;SDS011;11018;51.258;6.806;2022-09-09T14:15:54;9.20;;;2.60;;
4353;SDS011;11018;51.258;6.806;2022-09-09T14:18:20;4.13;;;1.90;;
4353;SDS011;11018;51.258;6.806;2022-09-09T14:20:48;5.20;;;2.35;;
4353;SDS011;11018;51.258;6.806;2022-09-09T14:23:15;7.05;;;2.25;;
4353;SDS011;11018;51.258;6.806;2022-09-09T14:25:42;3.63;;;2.03;;
4353;SDS011;11018;51.258;6.806;2022-09-09T14:28:09;8.20;;;2.95;;
4353;SDS011;11018;51.258;6.806;2022-09-09T14:30:36;5.45;;;2.80;;
4353;SDS011;11018;51.258;6.806;2022-09-09T14:33:04;4.40;;;2.30;;
4353;SDS011;11018;51.258;6.806;2022-09-09T14:35:29;4.37;;;2.43;;
4353;SDS011;11018;51.258;6.806;2022-09-09T14:37:55;5.75;;;1.25;;
4353;SDS011;11018;51.258;6.806;2022-09-09T14:40:21;5.10;;;1.70;;
4353;SDS011;11018;51.258;6.806;2022-09-09T14:42:47;2.83;;;0.93;;
4353;SDS011;11018;51.258;6.806;2022-09-09T14:45:12;5.00;;;1.30;;
4353;SDS011;11018;51.258;6.806;2022-09-09T14:47:38;1.60;;;0.87;;
4353;SDS011;11018;51.258;6.806;2022-09-09T14:50:04;2.58;;;2.08;;
4353;SDS011;11018;51.258;6.806;2022-09-09T14:52:31;1.80;;;1.30;;
4353;SDS011;11018;51.258;6.806;2022-09-09T14:54:56;2.70;;;1.35;;
4353;SDS011;11018;51.258;6.806;2022-09-09T14:57:22;3.83;;;1.87;;
4353;SDS011;11018;51.258;6.806;2022-09-09T14:59:47;2.10;;;1.90;;
4353;SDS011;11018;51.258;6.806;2022-09-09T15:02:15;3.35;;;1.08;;
4353;SDS011;11018;51.258;6.806;2022-09-09T15:04:40;4.30;;;1.10;;
4353;SDS011;11018;51.258;6.806;2022-09-09T15:07:06;2.33;;;1.10;;
4353;SDS011;11018;51.258;6.806;2022-09-09T15:09:31;2.15;;;1.45;;
4353;SDS011;11018;51.258;6.806;2022-09-09T15:11:57;5.72;;;4.35;;
4353;SDS011;11018;51.258;6.806;2022-09-09T15:14:23;5.17;;;3.90;;
4353;SDS011;11018;51.258;6.806;2022-09-09T15:16:48;1.47;;;0.90;;
4353;SDS011;11018;51.258;6.806;2022-09-09T15:19:14;7.28;;;4.53;;
4353;SDS011;11018;51.258;6.806;2022-09-09T15:21:45;9.43;;;6.85;;
4353;SDS011;11018;51.258;6.806;2022-09-09T15:24:10;7.80;;;5.90;;
4353;SDS011;11018;51.258;6.806;2022-09-09T15:26:38;3.53;;;2.05;;
4353;SDS011;11018;51.258;6.806;2022-09-09T15:29:04;5.97;;;3.75;;
4353;SDS011;11018;51.258;6.806;2022-09-09T15:31:30;3.78;;;2.88;;
4353;SDS011;11018;51.258;6.806;2022-09-09T15:33:58;3.53;;;2.10;;
4353;SDS011;11018;51.258;6.806;2022-09-09T15:36:28;12.85;;;8.13;;
4353;SDS011;11018;51.258;6.806;2022-09-09T15:39:02;13.13;;;9.32;;
4353;SDS011;11018;51.258;6.806;2022-09-09T15:41:29;4.93;;;2.80;;
4353;SDS011;11018;51.258;6.806;2022-09-09T15:43:59;4.97;;;2.95;;
4353;SDS011;11018;51.258;6.806;2022-09-09T15:51:30;4.40;;;3.25;;
4353;SDS011;11018;51.258;6.806;2022-09-09T15:53:57;5.15;;;4.22;;
4353;SDS011;11018;51.258;6.806;2022-09-09T15:56:26;6.22;;;5.55;;
4353;SDS011;11018;51.258;6.806;2022-09-09T15:58:55;6.60;;;3.38;;
4353;SDS011;11018;51.258;6.806;2022-09-09T16:01:22;5.05;;;4.55;;
4353;SDS011;11018;51.258;6.806;2022-09-09T16:03:48;8.93;;;3.95;;
4353;SDS011;11018;51.258;6.806;2022-09-09T16:06:17;9.05;;;4.28;;
4353;SDS011;11018;51.258;6.806;2022-09-09T16:08:44;12.43;;;8.05;;
4353;SDS011;11018;51.258;6.806;2022-09-09T16:11:15;5.88;;;3.53;;
4353;SDS011;11018;51.258;6.806;2022-09-09T16:13:44;10.87;;;5.70;;
4353;SDS011;11018;51.258;6.806;2022-09-09T16:16:11;12.90;;;7.35;;
4353;SDS011;11018;51.258;6.806;2022-09-09T16:18:39;9.25;;;5.30;;
4353;SDS011;11018;51.258;6.806;2022-09-09T16:21:06;8.97;;;4.90;;
4353;SDS011;11018;51.258;6.806;2022-09-09T16:23:33;5.18;;;3.70;;
4353;SDS011;11018;51.258;6.806;2022-09-09T16:26:00;9.90;;;4.60;;
4353;SDS011;11018;51.258;6.806;2022-09-09T16:28:26;6.60;;;3.33;;
4353;SDS011;11018;51.258;6.806;2022-09-09T16:30:52;4.50;;;2.37;;
4353;SDS011;11018;51.258;6.806;2022-09-09T16:33:18;7.03;;;3.80;;
4353;SDS011;11018;51.258;6.806;2022-09-09T16:35:44;6.17;;;2.87;;
4353;SDS011;11018;51.258;6.806;2022-09-09T16:38:09;9.83;;;5.20;;
4353;SDS011;11018;51.258;6.806;2022-09-09T16:40:39;10.93;;;6.03;;
4353;SDS011;11018;51.258;6.806;2022-09-09T16:43:06;7.00;;;4.20;;
4353;SDS011;11018;51.258;6.806;2022-09-09T16:45:32;9.48;;;6.00;;
4353;SDS011;11018;51.258;6.806;2022-09-09T16:47:59;10.43;;;3.50;;
4353;SDS011;11018;51.258;6.806;2022-09-09T16:50:25;5.97;;;3.10;;
4353;SDS011;11018;51.258;6.806;2022-09-09T16:52:51;11.93;;;6.97;;
4353;SDS011;11018;51.258;6.806;2022-09-09T16:55:18;7.57;;;2.88;;
4353;SDS011;11018;51.258;6.806;2022-09-09T16:57:46;12.07;;;7.05;;
4353;SDS011;11018;51.258;6.806;2022-09-09T17:00:15;9.50;;;4.70;;
4353;SDS011;11018;51.258;6.806;2022-09-09T17:02:43;8.90;;;3.50;;
4353;SDS011;11018;51.258;6.806;2022-09-09T17:05:10;6.53;;;4.80;;
4353;SDS011;11018;51.258;6.806;2022-09-09T17:07:36;7.53;;;5.10;;
4353;SDS011;11018;51.258;6.806;2022-09-09T17:10:03;7.60;;;4.97;;
4353;SDS011;11018;51.258;6.806;2022-09-09T17:12:30;9.10;;;4.40;;
4353;SDS011;11018;51.258;6.806;2022-09-09T17:14:57;8.75;;;5.90;;
4353;SDS011;11018;51.258;6.806;2022-09-09T17:17:24;7.55;;;3.78;;
4353;SDS011;11018;51.258;6.806;2022-09-09T17:19:51;10.32;;;4.75;;
4353;SDS011;11018;51.258;6.806;2022-09-09T17:22:16;9.43;;;5.77;;
4353;SDS011;11018;51.258;6.806;2022-09-09T17:24:42;6.88;;;4.78;;
4353;SDS011;11018;51.258;6.806;2022-09-09T17:27:09;9.05;;;5.30;;